首页
METAR-TAF:

METAR-TAF

机场 :

Salina Municipal Airport

盐沼, 堪薩斯州, 美国

纬度: 38-46-48N, 经度: 097-38-39W, 海拔: 387米

当前天气观测

该预报发布于1小时和1分钟前的05:53 UTC
风速15节,风向
温度 27°C
湿度 54%
气压 1010 hPa
能見度: 16.1公里
天空无云

METAR: KSLN 130553Z AUTO 19015KT 10SM CLR 27/17 A2983 RMK AO2 PK WND 19026/0510 SLP084 T02670172 10339 20267 403440172 50011

时间: 01:54 (06:54 UTC)

预报

该预报发布于1小时和34分钟前的05:20 UTC
预报有效从13日的 06点(UTC)到 14日的 06点(UTC)
风速13节,风向
能見度: 10公里
少量云层高于25000英尺
从 13日的 1500点(UTC)
风速15节,风向南转西南,有时为24节阵风
能見度: 10公里
天空无云
几率 30%
从 13日的 22点(UTC)到 14日的 01点(UTC)
风速20节,风向多变,有时为30节阵风
能見度: 8.0公里
多云层高于5000英尺, 积雨云.
雷暴, 小雨, 轻雾
从 14日的 0200点(UTC)
风速13节,风向东北
能見度: 10公里
散云层高于12000英尺

TAF: KSLN 130520Z 1306/1406 19013KT P6SM FEW250 FM131500 21015G24KT P6SM SKC PROB30 1322/1401 VRB20G30KT 5SM -TSRA BR BKN050CB FM140200 05013KT P6SM SCT120

超过4000个机场的气象观测和天气预报(METAR&TAF报告)。

可查询的气象台以黄色和红色小点在地图上表示。

将鼠标移到小点上方,可查看气象台名称。

然后点击查看天气观测和预报。

如需切换地图:点击带黑十字的绿色按钮放大地图;点击带横线的绿色按钮缩小地图;或者点击绿色箭头查看邻近地区的地图。


METAR-TAF: